Farmington ASC

2021-07-24 21:30:00

  • imperial
Date Time Air Temperature Relative Humidity Dewpoint Windchill Heat Index Wind Speed Wind Dir. Rain Solar Radiation Soil Temperature
2m 2m 3m 3m 10cm
US/Mountain F % F F F MPH deg in MJ/m^2 F
max avg avg
2021-07-23 21:45:00 68.6 70.5 58.6 68.6 68.6 6.2 8.1 5.1 109.0 111.5 0.00 0.0000000 76.9
2021-07-23 21:50:00 68.9 69.2 58.4 68.9 68.9 4.0 8.7 5.6 121.5 101.3 0.00 0.0000000 76.8
2021-07-23 21:55:00 68.8 66.4 57.1 68.8 68.8 5.3 8.7 5.4 116.2 109.9 0.00 0.0000000 76.8
2021-07-23 22:00:00 69.2 65.4 57.1 69.2 69.2 6.0 9.4 6.3 132.8 113.7 0.00 0.0000000 76.7
2021-07-23 22:05:00 69.4 64.1 56.8 69.4 69.4 7.4 10.3 7.9 112.6 116.9 0.00 0.0000000 76.7
2021-07-23 22:10:00 69.6 63.3 56.6 69.6 69.6 7.2 11.2 8.5 143.2 127.0 0.00 0.0000000 76.6
2021-07-23 22:15:00 69.4 63.8 56.6 69.4 69.4 5.5 9.0 6.6 153.0 133.0 0.00 0.0000000 76.6
2021-07-23 22:20:00 69.3 65.2 57.1 69.3 69.3 3.8 5.3 3.6 165.1 147.0 0.00 0.0000000 76.5
2021-07-23 22:25:00 68.6 67.6 57.5 68.6 68.6 3.1 5.5 3.8 217.2 194.1 0.00 0.0000000 76.5
2021-07-23 22:30:00 68.0 71.2 58.3 68.0 68.0 1.3 3.3 2.0 38.4 213.7 0.00 0.0000000 76.4
2021-07-23 22:35:00 67.6 71.6 58.1 67.6 67.6 5.3 6.2 3.9 44.2 8.3 0.00 0.0000000 76.4
2021-07-23 22:40:00 67.8 69.1 57.3 67.8 67.8 3.7 7.1 4.3 160.5 349.6 0.00 0.0000000 76.3
2021-07-23 22:45:00 68.3 67.1 56.9 68.3 68.3 2.2 4.9 3.2 173.4 212.1 0.00 0.0000000 76.3
2021-07-23 22:50:00 68.1 69.5 57.7 68.1 68.1 3.7 5.1 2.8 339.5 34.1 0.00 0.0000000 76.3
2021-07-23 22:55:00 67.7 72.6 58.6 67.7 67.7 3.8 6.2 4.0 287.4 307.4 0.00 0.0000000 76.2
2021-07-23 23:00:00 67.2 72.4 58.0 67.2 67.2 1.9 5.5 3.5 300.7 282.4 0.00 0.0000000 76.2
2021-07-23 23:05:00 67.5 71.5 58.0 67.5 67.5 1.0 2.2 1.6 325.6 313.0 0.00 0.0000000 76.1
2021-07-23 23:10:00 67.4 70.7 57.6 67.4 67.4 2.1 2.1 1.4 215.6 277.6 0.00 0.0000000 76.2
2021-07-23 23:15:00 67.5 70.8 57.7 67.5 67.5 3.8 4.0 3.3 202.3 215.7 0.00 0.0000000 76.1
2021-07-23 23:20:00 67.1 73.7 58.4 67.1 67.1 3.7 4.4 3.9 187.8 186.6 0.00 0.0000000 76.1
2021-07-23 23:25:00 67.0 74.5 58.7 67.0 67.0 2.1 3.5 2.7 105.8 157.8 0.00 0.0000000 76.0
2021-07-23 23:30:00 66.8 76.4 59.2 66.8 66.8 1.0 2.2 1.5 144.6 120.8 0.00 0.0000000 76.0
2021-07-23 23:35:00 66.4 76.3 58.7 66.4 66.4 1.3 2.1 1.0 66.3 112.1 0.00 0.0000000 76.0
2021-07-23 23:40:00 66.5 75.6 58.5 66.5 66.5 2.6 2.8 1.7 345.3 2.8 0.00 0.0000000 76.0
2021-07-23 23:45:00 66.5 75.6 58.5 66.5 66.5 2.2 2.8 2.5 344.4 356.0 0.00 0.0000000 75.9
2021-07-23 23:50:00 66.5 74.1 58.0 66.5 66.5 1.0 2.2 1.6 288.9 317.4 0.00 0.0000000 75.9
2021-07-23 23:55:00 66.7 73.1 57.8 66.7 66.7 1.7 2.1 1.2 3.3 343.0 0.00 0.0000000 75.9
2021-07-24 00:00:00 67.0 77.8 59.8 67.0 67.0 1.9 2.1 1.6 39.9 34.7 0.00 0.0000000 75.9
2021-07-24 00:05:00 66.7 77.4 59.4 66.7 66.7 1.2 2.2 1.5 50.3 40.3 0.00 0.0000000 75.8
2021-07-24 00:10:00 66.5 77.2 59.2 66.5 66.5 2.2 2.2 1.6 37.4 36.5 0.00 0.0000000 75.8
2021-07-24 00:15:00 66.5 79.9 60.1 66.5 66.5 1.2 2.2 1.6 38.5 41.2 0.00 0.0000000 75.8
2021-07-24 00:20:00 66.3 81.1 60.3 66.3 66.3 2.2 2.4 1.8 345.3 20.4 0.00 0.0000000 75.8
2021-07-24 00:25:00 65.9 77.9 58.8 65.9 65.9 2.2 3.1 2.4 14.4 8.5 0.00 0.0000000 75.8
2021-07-24 00:30:00 65.8 77.4 58.5 65.8 65.8 0.0 2.1 0.7 30.8 19.4 0.00 0.0000000 75.8
2021-07-24 00:35:00 65.4 84.6 60.7 65.4 65.4 1.5 2.6 1.1 139.6 178.3 0.00 0.0000000 75.7
2021-07-24 00:40:00 64.7 89.1 61.4 64.7 64.7 1.9 2.2 1.7 129.4 131.4 0.00 0.0000000 75.7
2021-07-24 00:45:00 64.5 86.9 60.5 64.5 64.5 2.8 2.8 2.4 110.8 119.0 0.00 0.0000000 75.7
2021-07-24 00:50:00 64.3 88.7 60.9 64.3 64.3 2.8 3.5 2.4 116.1 114.9 0.00 0.0000000 75.7
2021-07-24 00:55:00 64.7 89.5 61.5 64.7 64.7 1.3 3.0 1.7 166.1 122.3 0.00 0.0000000 75.7
2021-07-24 01:00:00 64.5 89.7 61.4 64.5 64.5 3.1 3.1 2.2 157.9 173.2 0.00 0.0000000 75.6
2021-07-24 01:05:00 64.5 89.6 61.4 64.5 64.5 2.6 3.1 2.5 187.3 176.3 0.00 0.0000000 75.6
2021-07-24 01:10:00 64.5 90.3 61.6 64.5 64.5 1.7 3.0 2.2 124.9 134.3 0.00 0.0000000 75.6
2021-07-24 01:15:00 64.2 89.4 61.0 64.2 64.2 1.7 1.9 1.5 62.6 44.4 0.00 0.0000000 75.5
2021-07-24 01:20:00 64.0 90.2 61.1 64.0 64.0 1.3 2.1 1.5 81.0 57.6 0.00 0.0000000 75.5
2021-07-24 01:25:00 63.7 89.7 60.6 63.7 63.7 1.5 2.1 1.6 37.3 60.0 0.00 0.0000000 75.5
2021-07-24 01:30:00 64.0 86.7 59.9 64.0 64.0 1.5 2.2 1.8 41.8 25.4 0.00 0.0000000 75.5
2021-07-24 01:35:00 64.0 88.3 60.5 64.0 64.0 1.2 1.9 1.4 53.3 37.9 0.00 0.0000000 75.5
2021-07-24 01:40:00 64.1 84.3 59.2 64.1 64.1 1.5 2.2 1.3 39.0 65.8 0.00 0.0000000 75.4
2021-07-24 01:45:00 64.4 83.1 59.2 64.4 64.4 1.0 1.7 1.3 35.2 41.9 0.00 0.0000000 75.4
2021-07-24 01:50:00 64.6 84.6 59.8 64.6 64.6 2.6 2.8 1.8 137.7 105.8 0.00 0.0000000 75.4
2021-07-24 01:55:00 64.3 84.7 59.6 64.3 64.3 5.3 5.3 4.3 145.8 136.0 0.00 0.0000000 75.4
2021-07-24 02:00:00 64.4 84.4 59.6 64.4 64.4 4.6 6.7 5.4 112.0 138.2 0.00 0.0000000 75.3
2021-07-24 02:05:00 64.4 81.8 58.7 64.4 64.4 6.3 6.5 5.1 158.2 143.4 0.00 0.0000000 75.3
2021-07-24 02:10:00 64.1 85.1 59.6 64.1 64.1 6.3 6.9 5.7 138.5 144.4 0.00 0.0000000 75.3
2021-07-24 02:15:00 63.6 85.8 59.2 63.6 63.6 4.6 6.7 5.2 167.1 143.2 0.00 0.0000000 75.3
2021-07-24 02:20:00 63.8 85.4 59.3 63.8 63.8 3.0 5.3 4.2 162.6 149.5 0.00 0.0000000 75.2
2021-07-24 02:25:00 63.8 84.6 59.1 63.8 63.8 2.8 4.0 2.6 125.7 142.8 0.00 0.0000000 75.2
2021-07-24 02:30:00 63.6 85.8 59.2 63.6 63.6 5.5 6.2 4.6 117.7 123.9 0.00 0.0000000 75.2
2021-07-24 02:35:00 63.5 84.3 58.7 63.5 63.5 5.5 6.5 5.7 165.7 139.7 0.00 0.0000000 75.1
2021-07-24 02:40:00 63.6 85.0 59.0 63.6 63.6 4.0 5.8 4.5 157.9 158.8 0.00 0.0000000 75.1
2021-07-24 02:45:00 63.2 86.4 59.1 63.2 63.2 5.3 5.5 4.8 136.2 145.7 0.00 0.0000000 75.1
2021-07-24 02:50:00 63.3 86.5 59.2 63.3 63.3 4.9 6.2 5.0 142.9 129.2 0.00 0.0000000 75.1
2021-07-24 02:55:00 63.2 87.1 59.3 63.2 63.2 3.5 5.3 3.7 112.0 122.2 0.00 0.0000000 75.0
2021-07-24 03:00:00 62.6 88.8 59.3 62.6 62.6 4.2 4.6 4.0 130.3 126.4 0.00 0.0000000 75.0
2021-07-24 03:05:00 62.7 89.2 59.5 62.7 62.7 3.7 5.1 3.8 125.6 138.3 0.00 0.0000000 74.9
2021-07-24 03:10:00 62.5 89.7 59.4 62.5 62.5 4.9 4.9 3.8 125.3 123.5 0.00 0.0000000 74.9
2021-07-24 03:15:00 62.1 89.9 59.1 62.1 62.1 2.2 5.3 3.4 139.0 112.9 0.00 0.0000000 74.9
2021-07-24 03:20:00 62.0 89.8 59.0 62.0 62.0 1.3 2.6 1.3 142.3 76.0 0.00 0.0000000 74.8
2021-07-24 03:25:00 61.5 90.3 58.6 61.5 61.5 1.7 2.4 1.9 193.6 212.0 0.00 0.0000000 74.8
2021-07-24 03:30:00 61.5 92.1 59.2 61.5 61.5 2.8 3.0 2.0 99.2 120.5 0.00 0.0000000 74.8
2021-07-24 03:35:00 61.4 90.6 58.7 61.4 61.4 4.4 5.3 4.2 130.1 121.3 0.00 0.0000000 74.8
2021-07-24 03:40:00 61.8 87.0 57.9 61.8 61.8 6.0 7.8 5.9 126.6 123.7 0.00 0.0000000 74.7
2021-07-24 03:45:00 61.6 87.8 58.0 61.6 61.6 3.0 6.2 4.9 114.0 125.0 0.00 0.0000000 74.7
2021-07-24 03:50:00 61.3 87.5 57.5 61.3 61.3 2.6 4.6 3.3 76.7 99.5 0.00 0.0000000 74.6
2021-07-24 03:55:00 61.3 86.9 57.4 61.3 61.3 3.3 5.8 3.5 97.3 105.5 0.00 0.0000000 74.6
2021-07-24 04:00:00 61.1 86.7 57.1 61.1 61.1 1.5 3.8 2.3 41.2 99.5 0.00 0.0000000 74.6
2021-07-24 04:05:00 61.1 87.1 57.2 61.1 61.1 1.3 2.2 1.6 110.0 33.5 0.00 0.0000000 74.5
2021-07-24 04:10:00 61.1 86.3 56.9 61.1 61.1 2.1 2.1 1.8 80.0 103.8 0.00 0.0000000 74.5
2021-07-24 04:15:00 61.0 87.1 57.1 61.0 61.0 1.9 2.8 1.7 123.9 77.8 0.00 0.0000000 74.5
2021-07-24 04:20:00 61.1 87.6 57.4 61.1 61.1 1.7 3.1 1.8 294.0 77.6 0.00 0.0000000 74.4
2021-07-24 04:25:00 61.0 87.6 57.3 61.0 61.0 1.3 1.9 1.4 44.1 35.9 0.00 0.0000000 74.4
2021-07-24 04:30:00 61.0 88.3 57.5 61.0 61.0 1.7 1.7 1.4 154.6 97.7 0.00 0.0000000 74.4
2021-07-24 04:35:00 60.7 89.5 57.6 60.7 60.7 1.5 1.9 1.5 135.6 144.1 0.00 0.0000000 74.4
2021-07-24 04:40:00 60.5 90.3 57.6 60.5 60.5 2.4 2.4 1.7 146.3 133.8 0.00 0.0000000 74.3
2021-07-24 04:45:00 60.5 89.5 57.4 60.5 60.5 4.9 5.3 2.8 131.9 123.3 0.00 0.0000000 74.3
2021-07-24 04:50:00 60.8 89.3 57.6 60.8 60.8 4.0 5.5 4.3 141.4 134.0 0.00 0.0000000 74.3
2021-07-24 04:55:00 60.8 89.0 57.5 60.8 60.8 3.7 6.0 4.5 114.7 126.4 0.00 0.0000000 74.2
2021-07-24 05:00:00 60.7 89.0 57.5 60.7 60.7 3.1 3.7 2.6 134.3 108.8 0.00 0.0000000 74.2
2021-07-24 05:05:00 61.0 88.7 57.7 61.0 61.0 4.9 4.9 3.2 134.9 129.1 0.00 0.0000000 74.2
2021-07-24 05:10:00 61.0 88.4 57.5 61.0 61.0 2.6 4.9 3.7 128.0 113.1 0.00 0.0000000 74.1
2021-07-24 05:15:00 61.0 86.9 57.0 61.0 61.0 3.5 4.4 2.5 107.4 102.8 0.00 0.0000000 74.1
2021-07-24 05:20:00 61.4 85.7 57.1 61.4 61.4 3.8 4.2 3.3 86.3 93.9 0.00 0.0000000 74.1
2021-07-24 05:25:00 61.6 85.4 57.2 61.6 61.6 3.1 4.0 3.0 111.1 111.0 0.00 0.0000000 74.1
2021-07-24 05:30:00 61.6 86.0 57.3 61.6 61.6 4.4 4.6 3.4 121.1 113.6 0.00 0.0000000 74.0
2021-07-24 05:35:00 61.8 86.0 57.5 61.8 61.8 2.8 4.7 3.8 96.3 122.0 0.00 0.0000000 74.0
2021-07-24 05:40:00 61.5 86.0 57.3 61.5 61.5 2.4 2.8 2.0 144.8 100.8 0.00 0.0000000 74.0
2021-07-24 05:45:00 61.7 85.7 57.4 61.7 61.7 1.2 2.4 1.5 42.0 68.3 0.00 0.0000000 74.0
2021-07-24 05:50:00 61.6 85.5 57.2 61.6 61.6 2.8 2.8 1.5 113.9 100.9 0.00 0.0000000 74.0
2021-07-24 05:55:00 61.6 85.3 57.1 61.6 61.6 2.8 4.4 2.7 105.3 107.4 0.00 0.0000000 73.9
2021-07-24 06:00:00 61.6 86.3 57.5 61.6 61.6 2.6 3.3 2.6 89.7 113.5 0.00 0.0010000 73.9
2021-07-24 06:05:00 61.6 86.5 57.6 61.6 61.6 2.1 3.3 2.3 129.8 103.2 0.00 0.0020000 73.9
2021-07-24 06:10:00 61.4 87.1 57.5 61.4 61.4 2.6 2.6 2.2 123.8 112.5 0.00 0.0030000 73.9
2021-07-24 06:15:00 61.1 86.9 57.2 61.1 61.1 4.4 5.1 3.3 130.1 115.6 0.00 0.0060000 73.9
2021-07-24 06:20:00 61.0 87.2 57.2 61.0 61.0 2.2 3.7 2.7 69.5 115.6 0.00 0.0090000 73.8
2021-07-24 06:25:00 60.6 88.2 57.1 60.6 60.6 3.8 5.6 3.8 134.9 119.9 0.00 0.0120000 73.8
2021-07-24 06:30:00 60.7 89.0 57.5 60.7 60.7 3.8 5.6 4.5 116.1 115.2 0.00 0.0150000 73.8
2021-07-24 06:35:00 60.4 89.3 57.2 60.4 60.4 4.6 5.3 4.2 131.5 126.6 0.00 0.0170000 73.8
2021-07-24 06:40:00 60.7 89.5 57.5 60.7 60.7 5.3 6.3 5.0 149.1 117.4 0.00 0.0200000 73.7
2021-07-24 06:45:00 60.6 89.2 57.4 60.6 60.6 3.8 7.6 5.2 143.7 121.6 0.00 0.0240000 73.7
2021-07-24 06:50:00 60.6 89.1 57.4 60.6 60.6 6.5 8.5 5.9 104.6 127.5 0.00 0.0270000 73.7
2021-07-24 06:55:00 60.8 89.0 57.5 60.8 60.8 6.2 7.2 5.9 123.9 130.5 0.00 0.0310000 73.6
2021-07-24 07:00:00 61.0 88.8 57.7 61.0 61.0 7.1 7.6 5.9 117.8 128.1 0.00 0.0350000 73.6
2021-07-24 07:05:00 61.1 88.4 57.6 61.1 61.1 4.9 6.7 5.5 142.4 133.9 0.00 0.0370000 73.6
2021-07-24 07:10:00 61.6 87.3 57.8 61.6 61.6 4.0 6.5 4.9 166.8 152.2 0.00 0.0390000 73.6
2021-07-24 07:15:00 62.3 85.8 58.0 62.3 62.3 4.2 5.3 4.0 170.1 169.7 0.00 0.0440000 73.5
2021-07-24 07:20:00 62.2 85.9 57.9 62.2 62.2 7.1 7.2 6.0 140.2 164.8 0.00 0.1090000 73.5
2021-07-24 07:25:00 62.1 86.8 58.1 62.1 62.1 4.6 6.5 5.1 162.3 149.2 0.00 0.1460000 73.5
2021-07-24 07:30:00 62.5 86.0 58.2 62.5 62.5 3.1 5.1 4.0 123.0 150.0 0.00 0.1600000 73.4
2021-07-24 07:35:00 62.9 84.8 58.2 62.9 62.9 2.8 3.7 2.8 170.0 151.5 0.00 0.1740000 73.4
2021-07-24 07:40:00 63.3 83.4 58.2 63.3 63.3 3.5 4.2 3.6 135.4 145.2 0.00 0.1880000 73.4
2021-07-24 07:45:00 63.7 81.6 58.0 63.7 63.7 2.4 3.5 2.9 118.2 122.7 0.00 0.2010000 73.3
2021-07-24 07:50:00 64.0 82.7 58.6 64.0 64.0 3.1 4.0 2.7 164.2 143.9 0.00 0.2160000 73.3
2021-07-24 07:55:00 64.7 81.5 58.9 64.7 64.7 1.5 3.7 2.3 169.4 181.4 0.00 0.2310000 73.3
2021-07-24 08:00:00 65.7 78.6 58.9 65.7 65.7 1.7 2.6 1.6 148.0 139.0 0.00 0.2470000 73.3
2021-07-24 08:05:00 66.0 80.7 59.9 66.0 66.0 3.3 3.3 2.3 151.3 164.4 0.00 0.2610000 73.3
2021-07-24 08:10:00 65.9 81.7 60.1 65.9 65.9 2.6 4.0 3.0 171.8 167.6 0.00 0.2750000 73.3
2021-07-24 08:15:00 66.9 79.2 60.2 66.9 66.9 2.1 3.1 2.0 149.9 176.7 0.00 0.2920000 73.2
2021-07-24 08:20:00 67.3 76.2 59.5 67.3 67.3 1.5 2.8 1.8 262.7 223.2 0.00 0.3070000 73.3
2021-07-24 08:25:00 67.6 76.2 59.8 67.6 67.6 1.7 3.7 2.2 205.8 216.2 0.00 0.3220000 73.2
2021-07-24 08:30:00 67.3 79.8 60.9 67.3 67.3 3.0 3.8 2.7 211.8 220.2 0.00 0.3340000 73.3
2021-07-24 08:35:00 67.3 78.4 60.4 67.3 67.3 3.1 4.0 2.9 243.4 205.8 0.00 0.3490000 73.3
2021-07-24 08:40:00 67.8 75.3 59.6 67.8 67.8 2.4 3.8 2.7 212.6 218.9 0.00 0.3630000 73.3
2021-07-24 08:45:00 68.1 77.3 60.7 68.1 68.1 1.3 4.4 2.9 290.9 258.4 0.00 0.3780000 73.3
2021-07-24 08:50:00 68.9 72.9 59.8 68.9 68.9 3.1 5.6 3.0 218.0 203.8 0.00 0.3910000 73.3
2021-07-24 08:55:00 69.4 72.6 60.2 69.4 69.4 3.3 3.5 2.4 208.7 222.0 0.00 0.4080000 73.4
2021-07-24 09:00:00 69.7 70.8 59.8 69.7 69.7 1.0 5.5 2.6 211.2 181.3 0.00 0.4280000 73.4
2021-07-24 09:05:00 70.5 69.4 60.0 70.5 70.5 5.5 6.3 3.2 196.8 228.7 0.00 0.4530000 73.4
2021-07-24 09:10:00 69.9 70.3 59.8 69.9 69.9 4.6 5.5 3.7 218.2 198.9 0.00 0.4590000 73.5
2021-07-24 09:15:00 70.2 66.3 58.5 70.2 70.2 4.6 5.3 3.5 146.4 210.5 0.00 0.4700000 73.5
2021-07-24 09:20:00 70.6 66.8 59.1 70.6 70.6 2.2 4.2 2.5 156.2 152.2 0.00 0.4810000 73.5
2021-07-24 09:25:00 71.3 66.0 59.3 71.3 71.3 1.2 5.1 2.2 217.2 159.7 0.00 0.4950000 73.6
2021-07-24 09:30:00 72.2 64.5 59.5 72.2 72.2 6.9 6.9 3.8 158.4 159.0 0.00 0.5080000 73.6
2021-07-24 09:35:00 70.9 66.1 59.0 70.9 70.9 2.6 7.1 5.4 172.4 178.9 0.00 0.5210000 73.7
2021-07-24 09:40:00 70.7 66.3 58.9 70.7 70.7 3.3 6.2 4.3 236.0 187.9 0.00 0.5370000 73.7
2021-07-24 09:45:00 70.7 69.6 60.3 70.7 70.7 3.8 5.1 2.9 322.8 280.6 0.00 0.5520000 73.8
2021-07-24 09:50:00 71.7 64.7 59.2 71.7 71.7 2.8 3.7 2.4 40.7 18.5 0.00 0.5640000 73.9
2021-07-24 09:55:00 71.8 62.8 58.4 71.8 71.8 1.7 5.3 2.4 331.4 268.9 0.00 0.5740000 73.9
2021-07-24 10:00:00 73.4 61.2 59.2 73.4 73.4 3.8 3.8 2.3 233.0 214.2 0.00 0.5880000 74.0
2021-07-24 10:05:00 72.0 63.9 59.2 72.0 72.0 3.7 5.8 4.4 167.9 219.5 0.00 0.5980000 74.1
2021-07-24 10:10:00 72.0 63.8 59.0 72.0 72.0 5.6 6.5 4.2 301.6 276.8 0.00 0.6140000 74.1
2021-07-24 10:15:00 72.6 65.9 60.5 72.6 72.6 4.0 6.2 3.9 248.9 280.8 0.00 0.6250000 74.2
2021-07-24 10:20:00 72.9 60.3 58.3 72.9 72.9 1.9 5.6 3.5 345.5 301.3 0.00 0.6360000 74.3
2021-07-24 10:25:00 73.7 62.2 59.9 73.7 73.7 4.6 5.6 2.7 321.2 240.0 0.00 0.6480000 74.4
2021-07-24 10:30:00 73.3 63.2 60.0 73.3 73.3 2.4 4.9 3.3 301.5 325.0 0.00 0.6590000 74.5
2021-07-24 10:35:00 73.8 57.9 58.0 73.8 73.8 1.7 4.6 2.8 2.7 327.6 0.00 0.6700000 74.6
2021-07-24 10:40:00 73.9 58.2 58.3 73.9 73.9 1.7 5.5 2.8 296.5 311.0 0.00 0.6800000 74.7
2021-07-24 10:45:00 73.9 57.3 57.9 73.9 73.9 3.3 4.4 3.2 203.7 239.4 0.00 0.6930000 74.8
2021-07-24 10:50:00 74.6 54.7 57.2 74.6 74.6 3.3 3.7 2.5 294.3 213.1 0.00 0.7020000 74.9
2021-07-24 10:55:00 74.7 55.9 57.9 74.7 74.7 3.1 4.0 2.6 127.6 260.7 0.00 0.7120000 75.0
2021-07-24 11:00:00 75.8 55.5 58.7 75.8 75.8 2.2 4.2 2.1 115.2 164.6 0.00 0.7220000 75.1
2021-07-24 11:05:00 75.6 56.6 59.1 75.6 75.6 4.4 5.8 3.7 314.1 171.3 0.00 0.7320000 75.2
2021-07-24 11:10:00 75.8 56.9 59.5 75.8 75.8 2.8 4.4 2.9 283.0 272.2 0.00 0.7430000 75.3
2021-07-24 11:15:00 74.8 58.8 59.5 74.8 74.8 1.5 8.0 4.5 276.2 270.6 0.00 0.7480000 75.5
2021-07-24 11:20:00 75.9 53.6 57.9 75.9 75.9 5.5 6.5 3.1 266.9 281.9 0.00 0.7590000 75.6
2021-07-24 11:25:00 76.4 55.5 59.3 76.4 76.4 1.9 4.7 2.5 247.2 272.0 0.00 0.7700000 75.7
2021-07-24 11:30:00 76.9 51.7 57.8 76.9 76.9 1.9 3.5 1.8 77.8 231.7 0.00 0.7950000 75.8
2021-07-24 11:35:00 78.3 60.6 63.5 78.3 78.3 1.0 2.4 1.7 257.2 224.8 0.00 0.7980000 76.0
2021-07-24 11:40:00 77.9 53.0 59.4 77.9 77.9 3.7 6.9 3.9 135.9 141.3 0.00 0.6560000 76.1
2021-07-24 11:45:00 78.6 53.2 60.1 78.6 78.6 5.1 5.1 2.8 274.4 163.5 0.00 0.8250000 76.3
2021-07-24 11:50:00 77.7 50.8 58.0 77.7 77.7 7.1 7.1 5.4 253.8 255.7 0.00 0.8080000 76.4
2021-07-24 11:55:00 76.8 55.1 59.5 76.8 76.8 8.5 9.0 6.4 297.5 287.0 0.00 0.8070000 76.5
2021-07-24 12:00:00 76.9 56.5 60.2 76.9 76.9 3.1 8.8 5.2 314.9 294.1 0.00 0.8670000 76.7
2021-07-24 12:05:00 77.4 59.4 62.1 77.4 77.4 3.5 5.5 4.1 291.3 311.6 0.00 0.8310000 76.8
2021-07-24 12:10:00 77.7 56.4 61.0 77.7 77.7 4.0 7.6 5.0 187.9 260.8 0.00 0.8370000 76.9
2021-07-24 12:15:00 77.7 54.1 59.7 77.7 77.7 3.1 7.2 4.9 301.7 259.5 0.00 0.8440000 77.1
2021-07-24 12:20:00 79.5 54.1 61.5 79.5 79.5 7.8 7.8 2.5 283.1 102.6 0.00 0.8250000 77.2
2021-07-24 12:25:00 78.8 48.4 57.7 78.8 78.8 5.5 10.3 5.6 198.4 204.5 0.00 0.8490000 77.4
2021-07-24 12:30:00 78.6 49.2 57.9 78.6 78.6 6.7 9.9 7.2 260.4 241.1 0.00 0.8500000 77.5
2021-07-24 12:35:00 79.2 46.4 56.9 79.2 79.2 1.9 6.5 3.6 228.8 226.7 0.00 0.8490000 77.7
2021-07-24 12:40:00 78.9 49.9 58.6 78.9 78.9 3.8 10.6 5.9 276.2 272.5 0.00 0.8490000 77.8
2021-07-24 12:45:00 78.3 49.7 58.0 78.3 78.3 5.6 9.4 6.4 301.8 286.9 0.00 0.8500000 77.9
2021-07-24 12:50:00 78.9 51.3 59.5 78.9 78.9 4.0 7.6 4.9 322.5 263.0 0.00 0.8570000 78.0
2021-07-24 12:55:00 79.7 50.9 59.9 79.7 79.7 7.4 9.4 5.6 284.1 282.8 0.00 0.8650000 78.2
2021-07-24 13:00:00 79.9 45.8 57.1 79.9 79.9 5.5 9.6 6.6 6.2 305.4 0.00 0.8880000 78.3
2021-07-24 13:05:00 80.2 47.3 58.3 80.2 80.7 8.3 9.9 6.3 256.6 294.7 0.00 0.3160000 78.5
2021-07-24 13:10:00 79.7 45.6 56.8 79.7 79.7 6.2 11.5 7.5 245.2 239.9 0.00 1.0240000 78.6
2021-07-24 13:15:00 79.8 47.6 58.2 79.8 79.8 8.3 11.0 6.1 261.4 261.3 0.00 0.2280000 78.7
2021-07-24 13:20:00 79.3 51.4 59.8 79.3 79.3 6.5 10.6 7.9 277.3 274.3 0.00 0.2110000 78.8
2021-07-24 13:25:00 79.3 45.3 56.2 79.3 79.3 2.8 9.7 6.2 246.6 261.7 0.00 0.5780000 79.0
2021-07-24 13:30:00 81.2 41.8 55.8 81.2 81.0 8.1 10.8 5.7 160.2 242.5 0.00 1.0430000 79.0
2021-07-24 13:35:00 82.1 39.0 54.6 82.1 82.1 7.2 11.9 7.0 150.9 177.7 0.00 0.4070000 79.1
2021-07-24 13:40:00 81.6 40.1 55.0 81.6 81.1 6.9 10.6 7.4 171.0 168.1 0.00 0.2210000 79.2
2021-07-24 13:45:00 80.3 40.1 53.8 80.3 80.1 6.5 7.4 5.7 174.4 159.3 0.00 0.1420000 79.3
2021-07-24 13:50:00 80.2 44.4 56.5 80.2 80.4 15.5 15.5 8.2 125.6 158.2 0.00 0.0740000 79.3
2021-07-24 13:55:00 71.6 71.5 61.9 71.6 71.6 21.7 26.2 17.8 125.5 127.7 0.00 0.0240000 79.4
2021-07-24 14:00:00 61.5 97.0 60.6 61.5 61.5 30.3 37.4 26.5 187.0 139.1 0.13 0.0170000 79.3
2021-07-24 14:05:00 59.7 99.9 59.7 59.7 59.7 12.6 29.6 19.6 192.0 169.5 0.09 0.0190000 79.1
2021-07-24 14:10:00 60.2 99.9 60.1 60.2 60.2 8.3 13.0 8.0 172.2 172.5 0.00 0.0250000 79.0
2021-07-24 14:15:00 60.9 99.9 60.9 60.9 60.9 7.1 13.3 8.8 207.7 224.7 0.03 0.0420000 78.7
2021-07-24 14:20:00 61.2 99.9 61.2 61.2 61.2 4.7 8.0 5.6 185.5 194.0 0.00 0.0730000 78.4
2021-07-24 14:25:00 62.2 93.2 60.2 62.2 62.2 7.1 10.5 7.9 207.0 193.9 0.00 0.1030000 78.2
2021-07-24 14:30:00 62.3 95.9 61.1 62.3 62.3 6.7 8.8 6.8 182.6 192.7 0.00 0.1250000 77.9
2021-07-24 14:35:00 63.0 90.1 60.0 63.0 63.0 9.4 12.1 9.6 138.1 166.7 0.00 0.1840000 77.7
2021-07-24 14:40:00 63.8 91.3 61.2 63.8 63.8 8.5 12.2 10.3 138.9 142.3 0.00 0.2550000 77.5
2021-07-24 14:45:00 64.5 85.3 59.9 64.5 64.5 13.0 15.3 13.1 125.2 138.1 0.00 0.2950000 77.4
2021-07-24 14:50:00 65.4 83.3 60.2 65.4 65.4 10.1 14.7 10.9 152.5 140.4 0.00 0.3400000 77.2
2021-07-24 14:55:00 67.6 77.4 60.3 67.6 67.6 13.0 15.3 12.0 147.9 144.2 0.00 0.2620000 77.1
2021-07-24 15:00:00 70.3 72.9 61.2 70.3 70.3 12.2 14.4 11.2 155.5 152.3 0.00 0.8460000 77.0
2021-07-24 15:05:00 72.6 73.7 63.7 72.6 72.6 13.0 16.7 12.6 146.1 148.9 0.00 0.7740000 76.9
2021-07-24 15:10:00 73.5 64.0 60.5 73.5 73.5 14.7 16.4 12.9 153.1 151.7 0.00 0.4200000 76.9
2021-07-24 15:15:00 72.7 66.3 60.8 72.7 72.7 13.0 21.4 16.2 165.5 161.7 0.00 0.3900000 76.8
2021-07-24 15:20:00 72.8 61.5 58.8 72.8 72.8 14.0 19.9 15.0 164.0 166.1 0.00 0.4110000 76.8
2021-07-24 15:25:00 72.9 58.9 57.6 72.9 72.9 13.7 16.2 13.8 181.7 168.5 0.00 0.4860000 76.7
2021-07-24 15:30:00 72.4 60.4 57.9 72.4 72.4 10.1 15.6 12.5 135.7 165.5 0.00 0.3420000 76.7
2021-07-24 15:35:00 72.7 60.3 58.2 72.7 72.7 8.7 14.4 10.2 152.4 159.2 0.00 0.4990000 76.7
2021-07-24 15:40:00 73.1 58.4 57.6 73.1 73.1 9.2 12.4 9.9 168.4 171.7 0.00 0.3800000 76.7
2021-07-24 15:45:00 73.0 57.2 57.0 73.0 73.0 9.9 12.1 9.9 181.2 178.6 0.00 0.3750000 76.7
2021-07-24 15:50:00 72.9 58.2 57.3 72.9 72.9 7.4 11.9 8.7 177.2 181.4 0.00 0.1940000 76.6
2021-07-24 15:55:00 72.3 62.1 58.6 72.3 72.3 6.2 10.6 7.8 199.7 184.5 0.00 0.1400000 76.6
2021-07-24 16:00:00 71.9 60.0 57.2 71.9 71.9 5.1 9.2 6.6 208.3 193.5 0.00 0.1220000 76.6
2021-07-24 16:05:00 71.9 57.5 56.1 71.9 71.9 7.4 7.6 5.3 191.3 200.8 0.00 0.1140000 76.6
2021-07-24 16:10:00 71.4 59.7 56.7 71.4 71.4 5.8 8.1 6.7 200.7 197.3 0.00 0.1150000 76.6
2021-07-24 16:15:00 71.6 61.9 57.8 71.6 71.6 6.3 8.5 6.3 181.2 190.2 0.00 0.0740000 76.5
2021-07-24 16:20:00 70.9 63.2 57.8 70.9 70.9 4.9 7.6 5.7 191.6 197.4 0.00 0.0590000 76.5
2021-07-24 16:45:00 70.3 64.4 57.7 70.3 70.3 2.2 3.0 2.5 326.9 305.1 0.00 0.0470000 76.4
2021-07-24 16:50:00 69.7 64.3 57.1 69.7 69.7 4.2 4.4 2.6 298.9 359.0 0.00 0.0510000 76.3
2021-07-24 16:55:00 69.6 63.8 56.8 69.6 69.6 4.4 5.6 3.9 324.4 336.2 0.00 0.0620000 76.3
2021-07-24 17:05:00 69.5 66.4 57.8 69.5 69.5 3.0 4.2 2.5 305.1 336.5 0.00 0.0480000 76.2
2021-07-24 17:10:00 69.6 63.0 56.4 69.6 69.6 2.2 3.8 2.3 23.7 344.7 0.00 0.0660000 76.2
2021-07-24 17:15:00 69.7 63.5 56.8 69.7 69.7 5.6 5.8 3.1 345.8 333.5 0.00 0.0980000 76.2
2021-07-24 17:20:00 69.7 63.9 57.0 69.7 69.7 3.3 3.8 2.3 267.5 321.9 0.00 0.1070000 76.2
2021-07-24 17:25:00 70.2 63.0 57.1 70.2 70.2 0.8 3.8 1.7 36.5 268.7 0.00 0.1170000 76.2
2021-07-24 17:30:00 70.4 63.8 57.5 70.4 70.4 1.7 2.6 1.6 257.0 294.8 0.00 0.1470000 76.1
2021-07-24 17:35:00 70.7 61.0 56.6 70.7 70.7 3.1 3.3 2.3 344.3 326.9 0.00 0.1630000 76.1
2021-07-24 17:40:00 71.3 64.3 58.6 71.3 71.3 1.7 2.6 1.6 295.3 322.1 0.00 0.1900000 76.1
2021-07-24 17:45:00 72.2 61.2 58.1 72.2 72.2 2.2 2.6 1.9 0.7 335.5 0.00 0.4010000 76.1
2021-07-24 17:50:00 72.6 58.2 57.0 72.6 72.6 3.3 3.3 2.7 23.7 6.5 0.00 0.1480000 76.1
2021-07-24 17:55:00 72.1 60.6 57.7 72.1 72.1 2.8 4.7 3.4 18.1 13.3 0.00 0.1220000 76.1
2021-07-24 18:05:00 72.0 63.5 58.9 72.0 72.0 2.6 3.7 2.6 0.7 21.4 0.00 0.0640000 76.2
2021-07-24 18:10:00 71.8 62.6 58.4 71.8 71.8 4.0 4.0 2.5 11.1 27.9 0.00 0.0630000 76.2
2021-07-24 18:15:00 71.8 66.7 60.1 71.8 71.8 1.5 4.6 2.7 340.1 26.3 0.00 0.0980000 76.2
2021-07-24 18:20:00 71.6 65.6 59.4 71.6 71.6 1.7 2.2 1.7 335.8 17.8 0.00 0.1300000 76.2
2021-07-24 18:25:00 71.6 64.8 59.1 71.6 71.6 1.7 3.0 1.8 304.1 353.9 0.00 0.1350000 76.2
2021-07-24 18:30:00 71.5 62.1 57.8 71.5 71.5 1.9 2.4 1.8 223.3 245.6 0.00 0.1340000 76.2
2021-07-24 18:35:00 71.5 67.1 60.0 71.5 71.5 4.2 4.4 3.1 236.3 236.5 0.00 0.1240000 76.2
2021-07-24 18:40:00 71.4 66.9 59.8 71.4 71.4 3.5 4.0 3.3 256.1 239.0 0.00 0.0920000 76.2
2021-07-24 18:45:00 71.2 67.5 59.8 71.2 71.2 3.3 3.8 3.2 270.1 265.2 0.00 0.0840000 76.2
2021-07-24 18:50:00 71.0 67.9 59.9 71.0 71.0 2.1 3.5 2.2 12.3 301.9 0.00 0.0740000 76.2
2021-07-24 18:55:00 70.7 65.4 58.5 70.7 70.7 3.1 5.1 3.1 14.1 353.6 0.00 0.0610000 76.2
2021-07-24 19:05:00 70.4 67.7 59.2 70.4 70.4 2.4 3.8 2.1 6.3 18.8 0.00 0.0660000 76.2
2021-07-24 19:10:00 70.2 70.4 60.1 70.2 70.2 1.5 2.6 2.0 348.1 10.0 0.00 0.0520000 76.2
2021-07-24 19:15:00 70.1 67.8 58.9 70.1 70.1 2.1 3.5 2.4 346.0 7.1 0.00 0.0420000 76.2
2021-07-24 19:20:00 70.1 68.5 59.3 70.1 70.1 0.8 2.2 1.6 323.2 9.6 0.00 0.0320000 76.2
2021-07-24 19:25:00 69.8 70.0 59.6 69.8 69.8 0.8 1.9 0.8 24.7 23.6 0.00 0.0230000 76.2
2021-07-24 19:30:00 69.9 69.7 59.6 69.9 69.9 0.0 0.8 0.0 29.2 29.3 0.00 0.0190000 76.2
2021-07-24 19:35:00 70.0 79.5 63.4 70.0 70.0 0.0 0.0 0.0 260.5 0.0 0.00 0.0140000 76.2
2021-07-24 19:40:00 69.2 75.7 61.2 69.2 69.2 2.8 2.8 1.2 4.6 335.1 0.00 0.0120000 76.2
2021-07-24 19:45:00 68.5 69.7 58.2 68.5 68.5 1.2 3.0 1.9 1.1 19.0 0.00 0.0130000 76.2
2021-07-24 19:50:00 68.6 70.2 58.5 68.6 68.6 0.0 1.5 0.9 16.4 12.7 0.00 0.0130000 76.1
2021-07-24 19:55:00 68.4 73.2 59.5 68.4 68.4 0.0 1.0 0.0 142.6 142.5 0.00 0.0140000 76.1
2021-07-24 20:05:00 68.5 72.5 59.3 68.5 68.5 0.0 0.0 0.0 179.0 0.0 0.00 0.0060000 76.1
2021-07-24 20:10:00 68.6 73.1 59.6 68.6 68.6 0.0 1.3 0.2 110.1 82.5 0.00 0.0050000 76.1
2021-07-24 20:15:00 68.6 76.7 61.0 68.6 68.6 0.0 0.0 0.0 112.3 0.0 0.00 0.0030000 76.1
2021-07-24 20:20:00 68.3 75.7 60.3 68.3 68.3 0.0 0.0 0.0 105.7 0.0 0.00 0.0020000 76.0
2021-07-24 20:25:00 68.0 78.0 60.9 68.0 68.0 0.0 0.0 0.0 16.9 0.0 0.00 0.0010000 76.0
2021-07-24 20:30:00 67.8 78.8 60.9 67.8 67.8 0.0 0.0 0.0 16.9 0.0 0.00 0.0010000 76.0
2021-07-24 20:35:00 67.6 78.4 60.6 67.6 67.6 0.0 0.0 0.0 56.5 0.0 0.00 0.0000000 76.0
2021-07-24 20:40:00 67.8 82.9 62.4 67.8 67.8 1.0 1.2 0.2 119.2 124.5 0.00 0.0000000 76.0
2021-07-24 20:45:00 67.5 79.6 61.0 67.5 67.5 0.0 1.7 0.7 44.5 90.3 0.00 0.0000000 76.0
2021-07-24 20:50:00 67.4 80.5 61.2 67.4 67.4 1.5 1.5 1.0 14.2 17.4 0.00 0.0000000 75.9
2021-07-24 20:55:00 67.5 80.2 61.2 67.5 67.5 0.8 1.2 0.5 114.5 45.7 0.00 0.0000000 75.9
2021-07-24 21:00:00 67.3 87.0 63.3 67.3 67.3 1.7 1.7 0.4 154.4 151.7 0.00 0.0000000 75.9
2021-07-24 21:05:00 66.8 86.7 62.8 66.8 66.8 2.4 2.6 2.2 160.7 161.0 0.00 0.0000000 75.9
2021-07-24 21:10:00 66.1 88.3 62.5 66.1 66.1 1.5 3.0 2.2 156.3 160.4 0.00 0.0000000 75.8
2021-07-24 21:15:00 65.8 88.5 62.3 65.8 65.8 0.0 2.2 0.5 325.6 134.2 0.00 0.0000000 75.8
2021-07-24 21:20:00 65.5 90.0 62.5 65.5 65.5 1.3 1.5 0.3 149.2 128.3 0.00 0.0000000 75.8
2021-07-24 21:25:00 65.3 89.3 62.0 65.3 65.3 3.3 3.3 2.4 150.6 143.9 0.00 0.0000000 75.7
2021-07-24 21:30:00 65.3 88.6 61.9 65.3 65.3 3.0 3.8 3.3 118.3 137.8 0.00 0.0000000 75.7

Data is courtesy of the NM Climate Center. DO NOT USE IN LEGAL PROCEEDINGS.